sensor_id;sensor_type;location;lat;lon;timestamp;temperature;humidity
3344;DHT22;1685;53.104;8.228;2023-03-08T00:01:10;-0.70;99.90
3344;DHT22;1685;53.104;8.228;2023-03-08T00:03:38;-0.70;99.90
3344;DHT22;1685;53.104;8.228;2023-03-08T00:06:05;-0.80;99.90
3344;DHT22;1685;53.104;8.228;2023-03-08T00:08:32;-0.70;99.90
3344;DHT22;1685;53.104;8.228;2023-03-08T00:10:59;-0.70;99.90
3344;DHT22;1685;53.104;8.228;2023-03-08T00:13:27;-1.00;99.90
3344;DHT22;1685;53.104;8.228;2023-03-08T00:15:58;-0.80;99.90
3344;DHT22;1685;53.104;8.228;2023-03-08T00:20:58;-0.80;99.90
3344;DHT22;1685;53.104;8.228;2023-03-08T00:23:25;-0.90;99.90
3344;DHT22;1685;53.104;8.228;2023-03-08T00:28:18;-0.90;99.90
3344;DHT22;1685;53.104;8.228;2023-03-08T00:30:54;-0.80;99.90
3344;DHT22;1685;53.104;8.228;2023-03-08T00:35:54;-1.20;99.90
3344;DHT22;1685;53.104;8.228;2023-03-08T00:38:21;-0.90;99.90
3344;DHT22;1685;53.104;8.228;2023-03-08T00:43:14;-1.00;99.90
3344;DHT22;1685;53.104;8.228;2023-03-08T00:45:41;-0.90;99.90
3344;DHT22;1685;53.104;8.228;2023-03-08T00:48:09;-0.90;99.90
3344;DHT22;1685;53.104;8.228;2023-03-08T00:50:36;-0.90;99.90
3344;DHT22;1685;53.104;8.228;2023-03-08T00:53:03;-1.00;99.90
3344;DHT22;1685;53.104;8.228;2023-03-08T00:55:30;-1.00;99.90
3344;DHT22;1685;53.104;8.228;2023-03-08T00:57:56;-1.00;99.90
3344;DHT22;1685;53.104;8.228;2023-03-08T01:00:23;-1.00;99.90
3344;DHT22;1685;53.104;8.228;2023-03-08T01:02:50;-0.90;99.90
3344;DHT22;1685;53.104;8.228;2023-03-08T01:05:18;-0.80;99.90
3344;DHT22;1685;53.104;8.228;2023-03-08T01:07:45;-0.90;99.90
3344;DHT22;1685;53.104;8.228;2023-03-08T01:10:11;-0.90;99.90
3344;DHT22;1685;53.104;8.228;2023-03-08T01:12:39;-1.00;99.90
3344;DHT22;1685;53.104;8.228;2023-03-08T01:15:06;-1.00;99.90
3344;DHT22;1685;53.104;8.228;2023-03-08T01:17:33;-1.00;99.90
3344;DHT22;1685;53.104;8.228;2023-03-08T01:20:00;-0.90;99.90
3344;DHT22;1685;53.104;8.228;2023-03-08T01:22:28;-0.90;99.90
3344;DHT22;1685;53.104;8.228;2023-03-08T01:24:55;-1.00;99.90
3344;DHT22;1685;53.104;8.228;2023-03-08T01:27:22;-1.00;99.90
3344;DHT22;1685;53.104;8.228;2023-03-08T01:29:48;-1.00;99.90
3344;DHT22;1685;53.104;8.228;2023-03-08T01:32:15;-1.10;99.90
3344;DHT22;1685;53.104;8.228;2023-03-08T01:34:42;-1.10;99.90
3344;DHT22;1685;53.104;8.228;2023-03-08T01:39:37;-1.00;99.90
3344;DHT22;1685;53.104;8.228;2023-03-08T01:42:05;-1.00;99.90
3344;DHT22;1685;53.104;8.228;2023-03-08T01:44:51;-1.10;99.90
3344;DHT22;1685;53.104;8.228;2023-03-08T01:47:20;-1.50;99.90
3344;DHT22;1685;53.104;8.228;2023-03-08T01:49:47;-1.50;99.90
3344;DHT22;1685;53.104;8.228;2023-03-08T01:52:15;-0.90;99.90
3344;DHT22;1685;53.104;8.228;2023-03-08T01:54:47;-1.00;99.90
3344;DHT22;1685;53.104;8.228;2023-03-08T01:57:17;-1.10;99.90
3344;DHT22;1685;53.104;8.228;2023-03-08T01:59:46;-1.00;99.90
3344;DHT22;1685;53.104;8.228;2023-03-08T02:04:41;-1.10;99.90
3344;DHT22;1685;53.104;8.228;2023-03-08T02:07:08;-1.10;99.90
3344;DHT22;1685;53.104;8.228;2023-03-08T02:09:35;-1.10;99.90
3344;DHT22;1685;53.104;8.228;2023-03-08T02:12:05;-1.10;99.90
3344;DHT22;1685;53.104;8.228;2023-03-08T02:14:34;-1.10;99.90
3344;DHT22;1685;53.104;8.228;2023-03-08T02:19:33;-1.20;99.90
3344;DHT22;1685;53.104;8.228;2023-03-08T02:22:08;-1.10;99.90
3344;DHT22;1685;53.104;8.228;2023-03-08T02:24:37;-1.10;99.90
3344;DHT22;1685;53.104;8.228;2023-03-08T02:27:06;-1.20;99.90
3344;DHT22;1685;53.104;8.228;2023-03-08T02:29:35;-1.10;99.90
3344;DHT22;1685;53.104;8.228;2023-03-08T02:32:02;-1.10;99.90
3344;DHT22;1685;53.104;8.228;2023-03-08T02:34:28;-1.20;99.90
3344;DHT22;1685;53.104;8.228;2023-03-08T02:36:55;-1.10;99.90
3344;DHT22;1685;53.104;8.228;2023-03-08T02:39:22;-1.10;99.90
3344;DHT22;1685;53.104;8.228;2023-03-08T02:41:50;-1.20;99.90
3344;DHT22;1685;53.104;8.228;2023-03-08T02:44:16;-1.20;99.90
3344;DHT22;1685;53.104;8.228;2023-03-08T02:46:43;-0.70;99.90
3344;DHT22;1685;53.104;8.228;2023-03-08T02:49:10;-1.20;99.90
3344;DHT22;1685;53.104;8.228;2023-03-08T02:51:36;-1.20;99.90
3344;DHT22;1685;53.104;8.228;2023-03-08T02:56:30;-1.20;99.90
3344;DHT22;1685;53.104;8.228;2023-03-08T02:58:58;-1.40;99.90
3344;DHT22;1685;53.104;8.228;2023-03-08T03:03:53;-1.20;99.90
3344;DHT22;1685;53.104;8.228;2023-03-08T03:06:20;-1.10;99.90
3344;DHT22;1685;53.104;8.228;2023-03-08T03:08:48;-1.10;99.90
3344;DHT22;1685;53.104;8.228;2023-03-08T03:11:17;-1.30;99.90
3344;DHT22;1685;53.104;8.228;2023-03-08T03:13:44;-1.20;99.90
3344;DHT22;1685;53.104;8.228;2023-03-08T03:16:13;-1.40;99.90
3344;DHT22;1685;53.104;8.228;2023-03-08T03:21:09;-1.30;99.90
3344;DHT22;1685;53.104;8.228;2023-03-08T03:23:36;-1.30;99.90
3344;DHT22;1685;53.104;8.228;2023-03-08T03:26:04;-1.20;99.90
3344;DHT22;1685;53.104;8.228;2023-03-08T03:28:31;-1.30;99.90
3344;DHT22;1685;53.104;8.228;2023-03-08T03:30:58;-1.30;99.90
3344;DHT22;1685;53.104;8.228;2023-03-08T03:33:26;-1.30;99.90
3344;DHT22;1685;53.104;8.228;2023-03-08T03:35:53;-1.30;99.90
3344;DHT22;1685;53.104;8.228;2023-03-08T03:38:20;-1.30;99.90
3344;DHT22;1685;53.104;8.228;2023-03-08T03:43:13;-1.30;99.90
3344;DHT22;1685;53.104;8.228;2023-03-08T03:48:07;-1.30;99.90
3344;DHT22;1685;53.104;8.228;2023-03-08T03:50:35;-1.30;99.90
3344;DHT22;1685;53.104;8.228;2023-03-08T03:53:02;-1.40;99.90
3344;DHT22;1685;53.104;8.228;2023-03-08T04:00:22;-1.30;99.90
3344;DHT22;1685;53.104;8.228;2023-03-08T04:02:49;-1.20;99.90
3344;DHT22;1685;53.104;8.228;2023-03-08T04:05:16;-1.30;99.90
3344;DHT22;1685;53.104;8.228;2023-03-08T04:07:44;-1.30;99.90
3344;DHT22;1685;53.104;8.228;2023-03-08T04:10:10;-1.20;99.90
3344;DHT22;1685;53.104;8.228;2023-03-08T04:12:37;-1.50;99.90
3344;DHT22;1685;53.104;8.228;2023-03-08T04:15:05;-1.40;99.90
3344;DHT22;1685;53.104;8.228;2023-03-08T04:17:32;-1.40;99.90
3344;DHT22;1685;53.104;8.228;2023-03-08T04:19:59;-1.40;99.90
3344;DHT22;1685;53.104;8.228;2023-03-08T04:24:54;-1.60;99.90
3344;DHT22;1685;53.104;8.228;2023-03-08T04:27:21;-1.30;99.90
3344;DHT22;1685;53.104;8.228;2023-03-08T04:29:47;-1.20;99.90
3344;DHT22;1685;53.104;8.228;2023-03-08T04:32:14;-1.40;99.90
3344;DHT22;1685;53.104;8.228;2023-03-08T04:34:41;-1.40;99.90
3344;DHT22;1685;53.104;8.228;2023-03-08T04:37:10;-1.30;99.90
3344;DHT22;1685;53.104;8.228;2023-03-08T04:39:37;-1.30;99.90
3344;DHT22;1685;53.104;8.228;2023-03-08T04:42:05;-1.60;99.90
3344;DHT22;1685;53.104;8.228;2023-03-08T04:44:32;-1.60;99.90
3344;DHT22;1685;53.104;8.228;2023-03-08T04:49:26;-1.30;99.90
3344;DHT22;1685;53.104;8.228;2023-03-08T04:51:53;-1.40;99.90
3344;DHT22;1685;53.104;8.228;2023-03-08T04:54:19;-1.60;99.90
3344;DHT22;1685;53.104;8.228;2023-03-08T04:56:46;-1.50;99.90
3344;DHT22;1685;53.104;8.228;2023-03-08T04:59:14;-1.40;99.90
3344;DHT22;1685;53.104;8.228;2023-03-08T05:01:41;-1.40;99.90
3344;DHT22;1685;53.104;8.228;2023-03-08T05:04:09;-1.30;99.90
3344;DHT22;1685;53.104;8.228;2023-03-08T05:09:03;-1.40;99.90
3344;DHT22;1685;53.104;8.228;2023-03-08T05:13:58;-1.40;99.90
3344;DHT22;1685;53.104;8.228;2023-03-08T05:16:26;-1.50;99.90
3344;DHT22;1685;53.104;8.228;2023-03-08T05:18:53;-1.50;99.90
3344;DHT22;1685;53.104;8.228;2023-03-08T05:21:21;-1.50;99.90
3344;DHT22;1685;53.104;8.228;2023-03-08T05:23:48;-1.40;99.90
3344;DHT22;1685;53.104;8.228;2023-03-08T05:26:16;-1.60;99.90
3344;DHT22;1685;53.104;8.228;2023-03-08T05:28:43;-1.40;99.90
3344;DHT22;1685;53.104;8.228;2023-03-08T05:31:12;-1.70;99.90
3344;DHT22;1685;53.104;8.228;2023-03-08T05:33:41;-0.20;99.90
3344;DHT22;1685;53.104;8.228;2023-03-08T05:36:10;-1.50;99.90
3344;DHT22;1685;53.104;8.228;2023-03-08T05:38:36;-1.50;99.90
3344;DHT22;1685;53.104;8.228;2023-03-08T05:41:07;-1.40;99.90
3344;DHT22;1685;53.104;8.228;2023-03-08T05:43:34;-1.60;99.90
3344;DHT22;1685;53.104;8.228;2023-03-08T05:46:03;-1.50;99.90
3344;DHT22;1685;53.104;8.228;2023-03-08T05:48:30;-1.50;99.90
3344;DHT22;1685;53.104;8.228;2023-03-08T05:51:02;-1.60;99.90
3344;DHT22;1685;53.104;8.228;2023-03-08T05:53:29;-1.50;99.90
3344;DHT22;1685;53.104;8.228;2023-03-08T05:55:56;-1.50;99.90
3344;DHT22;1685;53.104;8.228;2023-03-08T05:58:22;-1.30;99.90
3344;DHT22;1685;53.104;8.228;2023-03-08T06:00:49;-1.40;99.90
3344;DHT22;1685;53.104;8.228;2023-03-08T06:03:16;-1.30;99.90
3344;DHT22;1685;53.104;8.228;2023-03-08T06:05:42;-1.50;99.90
3344;DHT22;1685;53.104;8.228;2023-03-08T06:08:10;-1.40;99.90
3344;DHT22;1685;53.104;8.228;2023-03-08T06:10:37;-1.40;99.90
3344;DHT22;1685;53.104;8.228;2023-03-08T06:13:04;-1.50;99.90
3344;DHT22;1685;53.104;8.228;2023-03-08T06:15:30;-1.40;99.90
3344;DHT22;1685;53.104;8.228;2023-03-08T06:17:57;-1.30;99.90
3344;DHT22;1685;53.104;8.228;2023-03-08T06:20:24;-1.30;99.90
3344;DHT22;1685;53.104;8.228;2023-03-08T06:22:50;-1.30;99.90
3344;DHT22;1685;53.104;8.228;2023-03-08T06:25:18;-1.30;99.90
3344;DHT22;1685;53.104;8.228;2023-03-08T06:27:45;-1.00;99.90
3344;DHT22;1685;53.104;8.228;2023-03-08T06:30:12;-1.40;99.90
3344;DHT22;1685;53.104;8.228;2023-03-08T06:32:39;-1.20;99.90
3344;DHT22;1685;53.104;8.228;2023-03-08T06:35:07;-1.30;99.90
3344;DHT22;1685;53.104;8.228;2023-03-08T06:40:02;-0.70;99.90
3344;DHT22;1685;53.104;8.228;2023-03-08T06:42:31;-1.00;99.90
3344;DHT22;1685;53.104;8.228;2023-03-08T06:44:58;-1.10;99.90
3344;DHT22;1685;53.104;8.228;2023-03-08T06:47:25;-1.00;99.90
3344;DHT22;1685;53.104;8.228;2023-03-08T06:57:14;-1.00;99.90
3344;DHT22;1685;53.104;8.228;2023-03-08T06:59:42;-0.70;99.90
3344;DHT22;1685;53.104;8.228;2023-03-08T07:07:02;-0.80;99.90
3344;DHT22;1685;53.104;8.228;2023-03-08T07:09:32;-0.90;99.90
3344;DHT22;1685;53.104;8.228;2023-03-08T07:11:58;-0.80;99.90
3344;DHT22;1685;53.104;8.228;2023-03-08T07:14:25;-0.70;99.90
3344;DHT22;1685;53.104;8.228;2023-03-08T07:16:53;-1.00;99.90
3344;DHT22;1685;53.104;8.228;2023-03-08T07:24:14;-0.60;99.90
3344;DHT22;1685;53.104;8.228;2023-03-08T07:31:34;-0.50;99.90
3344;DHT22;1685;53.104;8.228;2023-03-08T07:34:03;-0.50;99.90
3344;DHT22;1685;53.104;8.228;2023-03-08T07:36:29;-0.60;99.90
3344;DHT22;1685;53.104;8.228;2023-03-08T07:38:56;-0.50;99.90
3344;DHT22;1685;53.104;8.228;2023-03-08T07:43:53;-0.50;99.90
3344;DHT22;1685;53.104;8.228;2023-03-08T07:48:47;-0.40;99.90
3344;DHT22;1685;53.104;8.228;2023-03-08T07:51:15;-0.30;99.90
3344;DHT22;1685;53.104;8.228;2023-03-08T07:53:41;-0.10;99.90
3344;DHT22;1685;53.104;8.228;2023-03-08T07:56:08;0.00;99.90
3344;DHT22;1685;53.104;8.228;2023-03-08T07:58:35;-0.20;99.90
3344;DHT22;1685;53.104;8.228;2023-03-08T08:01:07;0.00;99.90
3344;DHT22;1685;53.104;8.228;2023-03-08T08:03:34;-0.10;99.90
3344;DHT22;1685;53.104;8.228;2023-03-08T08:06:02;0.00;99.90
3344;DHT22;1685;53.104;8.228;2023-03-08T08:08:30;-0.20;99.90
3344;DHT22;1685;53.104;8.228;2023-03-08T08:10:57;0.00;99.90
3344;DHT22;1685;53.104;8.228;2023-03-08T08:13:24;0.00;99.90
3344;DHT22;1685;53.104;8.228;2023-03-08T08:15:56;0.10;99.90
3344;DHT22;1685;53.104;8.228;2023-03-08T08:20:58;0.30;99.90
3344;DHT22;1685;53.104;8.228;2023-03-08T08:23:25;0.10;99.90
3344;DHT22;1685;53.104;8.228;2023-03-08T08:25:53;0.30;99.90
3344;DHT22;1685;53.104;8.228;2023-03-08T08:30:54;0.40;99.90
3344;DHT22;1685;53.104;8.228;2023-03-08T08:33:21;0.40;99.90
3344;DHT22;1685;53.104;8.228;2023-03-08T08:35:48;0.30;99.90
3344;DHT22;1685;53.104;8.228;2023-03-08T08:38:14;0.40;99.90
3344;DHT22;1685;53.104;8.228;2023-03-08T08:43:09;1.20;99.90
3344;DHT22;1685;53.104;8.228;2023-03-08T08:45:41;0.90;99.90
3344;DHT22;1685;53.104;8.228;2023-03-08T08:48:08;1.40;99.90
3344;DHT22;1685;53.104;8.228;2023-03-08T08:50:36;1.30;99.90
3344;DHT22;1685;53.104;8.228;2023-03-08T08:53:03;1.50;99.90
3344;DHT22;1685;53.104;8.228;2023-03-08T08:55:30;1.10;99.90
3344;DHT22;1685;53.104;8.228;2023-03-08T08:57:57;0.90;99.90
3344;DHT22;1685;53.104;8.228;2023-03-08T09:00:25;0.90;99.90
3344;DHT22;1685;53.104;8.228;2023-03-08T09:02:52;1.00;99.90
3344;DHT22;1685;53.104;8.228;2023-03-08T09:07:45;1.00;99.90
3344;DHT22;1685;53.104;8.228;2023-03-08T09:10:12;1.10;99.90
3344;DHT22;1685;53.104;8.228;2023-03-08T09:12:39;1.20;99.90
3344;DHT22;1685;53.104;8.228;2023-03-08T09:15:06;1.50;99.90
3344;DHT22;1685;53.104;8.228;2023-03-08T09:17:36;2.20;99.90
3344;DHT22;1685;53.104;8.228;2023-03-08T09:20:04;1.80;99.90
3344;DHT22;1685;53.104;8.228;2023-03-08T09:22:33;2.00;99.90
3344;DHT22;1685;53.104;8.228;2023-03-08T09:24:59;2.00;99.90
3344;DHT22;1685;53.104;8.228;2023-03-08T09:27:26;1.90;99.90
3344;DHT22;1685;53.104;8.228;2023-03-08T09:34:48;2.20;99.90
3344;DHT22;1685;53.104;8.228;2023-03-08T09:37:15;2.00;99.90
3344;DHT22;1685;53.104;8.228;2023-03-08T09:39:42;2.30;99.90
3344;DHT22;1685;53.104;8.228;2023-03-08T09:42:16;2.50;99.90
3344;DHT22;1685;53.104;8.228;2023-03-08T09:45:05;2.10;99.90
3344;DHT22;1685;53.104;8.228;2023-03-08T09:47:38;2.30;99.90
3344;DHT22;1685;53.104;8.228;2023-03-08T09:50:30;2.10;99.90
3344;DHT22;1685;53.104;8.228;2023-03-08T09:53:01;2.10;99.90
3344;DHT22;1685;53.104;8.228;2023-03-08T09:55:31;2.10;99.90
3344;DHT22;1685;53.104;8.228;2023-03-08T09:58:00;2.40;99.90
3344;DHT22;1685;53.104;8.228;2023-03-08T10:00:30;2.50;99.90
3344;DHT22;1685;53.104;8.228;2023-03-08T10:05:52;2.40;99.90
3344;DHT22;1685;53.104;8.228;2023-03-08T10:08:24;2.60;99.90
3344;DHT22;1685;53.104;8.228;2023-03-08T10:10:56;2.70;99.90
3344;DHT22;1685;53.104;8.228;2023-03-08T10:13:35;2.70;99.90
3344;DHT22;1685;53.104;8.228;2023-03-08T10:16:09;2.80;99.90
3344;DHT22;1685;53.104;8.228;2023-03-08T10:18:41;2.80;99.90
3344;DHT22;1685;53.104;8.228;2023-03-08T10:21:14;3.00;99.90
3344;DHT22;1685;53.104;8.228;2023-03-08T10:23:43;2.80;99.90
3344;DHT22;1685;53.104;8.228;2023-03-08T10:26:12;2.90;99.90
3344;DHT22;1685;53.104;8.228;2023-03-08T10:28:39;2.90;99.90
3344;DHT22;1685;53.104;8.228;2023-03-08T10:31:18;2.80;99.90
3344;DHT22;1685;53.104;8.228;2023-03-08T10:36:18;2.90;99.90
3344;DHT22;1685;53.104;8.228;2023-03-08T10:38:57;3.00;99.90
3344;DHT22;1685;53.104;8.228;2023-03-08T10:41:24;3.00;99.90
3344;DHT22;1685;53.104;8.228;2023-03-08T10:43:52;2.90;99.90
3344;DHT22;1685;53.104;8.228;2023-03-08T10:46:22;2.50;99.90
3344;DHT22;1685;53.104;8.228;2023-03-08T10:48:49;4.90;99.90
3344;DHT22;1685;53.104;8.228;2023-03-08T10:51:19;3.40;99.90
3344;DHT22;1685;53.104;8.228;2023-03-08T10:53:56;3.10;99.90
3344;DHT22;1685;53.104;8.228;2023-03-08T10:56:25;3.30;99.90
3344;DHT22;1685;53.104;8.228;2023-03-08T10:58:54;3.40;99.90
3344;DHT22;1685;53.104;8.228;2023-03-08T11:01:24;3.10;99.90
3344;DHT22;1685;53.104;8.228;2023-03-08T11:03:59;3.20;99.90
3344;DHT22;1685;53.104;8.228;2023-03-08T11:06:28;3.00;99.90
3344;DHT22;1685;53.104;8.228;2023-03-08T11:08:57;3.00;99.90
3344;DHT22;1685;53.104;8.228;2023-03-08T11:11:25;3.50;99.90
3344;DHT22;1685;53.104;8.228;2023-03-08T11:13:53;3.10;99.90
3344;DHT22;1685;53.104;8.228;2023-03-08T11:16:42;2.90;99.90
3344;DHT22;1685;53.104;8.228;2023-03-08T11:19:21;3.20;99.90
3344;DHT22;1685;53.104;8.228;2023-03-08T11:21:58;3.10;99.90
3344;DHT22;1685;53.104;8.228;2023-03-08T11:24:37;3.20;99.90
3344;DHT22;1685;53.104;8.228;2023-03-08T11:27:20;3.50;99.90
3344;DHT22;1685;53.104;8.228;2023-03-08T11:30:00;3.20;99.90
3344;DHT22;1685;53.104;8.228;2023-03-08T11:32:43;3.30;99.90
3344;DHT22;1685;53.104;8.228;2023-03-08T11:35:19;3.40;99.90
3344;DHT22;1685;53.104;8.228;2023-03-08T11:37:55;3.60;99.90
3344;DHT22;1685;53.104;8.228;2023-03-08T11:40:27;3.20;99.90
3344;DHT22;1685;53.104;8.228;2023-03-08T11:43:22;3.70;99.90
3344;DHT22;1685;53.104;8.228;2023-03-08T11:45:56;3.60;99.90
3344;DHT22;1685;53.104;8.228;2023-03-08T11:48:56;3.60;99.90
3344;DHT22;1685;53.104;8.228;2023-03-08T11:51:30;3.70;99.90
3344;DHT22;1685;53.104;8.228;2023-03-08T11:54:11;3.80;99.90
3344;DHT22;1685;53.104;8.228;2023-03-08T11:56:44;3.60;99.90
3344;DHT22;1685;53.104;8.228;2023-03-08T11:59:20;3.60;99.90
3344;DHT22;1685;53.104;8.228;2023-03-08T12:01:51;3.70;99.90
3344;DHT22;1685;53.104;8.228;2023-03-08T12:04:24;3.40;99.90
3344;DHT22;1685;53.104;8.228;2023-03-08T12:06:53;3.60;99.90
3344;DHT22;1685;53.104;8.228;2023-03-08T12:09:26;3.60;99.90
3344;DHT22;1685;53.104;8.228;2023-03-08T12:11:57;3.60;99.90
3344;DHT22;1685;53.104;8.228;2023-03-08T12:14:29;3.60;99.90
3344;DHT22;1685;53.104;8.228;2023-03-08T12:17:03;3.70;99.90
3344;DHT22;1685;53.104;8.228;2023-03-08T12:19:36;3.80;99.90
3344;DHT22;1685;53.104;8.228;2023-03-08T12:22:16;3.80;99.90
3344;DHT22;1685;53.104;8.228;2023-03-08T12:24:54;3.80;99.90
3344;DHT22;1685;53.104;8.228;2023-03-08T12:27:27;3.90;99.90
3344;DHT22;1685;53.104;8.228;2023-03-08T12:30:03;3.90;99.90
3344;DHT22;1685;53.104;8.228;2023-03-08T12:32:35;3.70;99.90
3344;DHT22;1685;53.104;8.228;2023-03-08T12:35:05;3.90;99.90
3344;DHT22;1685;53.104;8.228;2023-03-08T12:37:32;3.90;99.90
3344;DHT22;1685;53.104;8.228;2023-03-08T12:40:02;4.20;99.90
3344;DHT22;1685;53.104;8.228;2023-03-08T12:42:34;4.30;99.90
3344;DHT22;1685;53.104;8.228;2023-03-08T12:48:07;4.10;99.90
3344;DHT22;1685;53.104;8.228;2023-03-08T12:50:38;4.00;99.90
3344;DHT22;1685;53.104;8.228;2023-03-08T12:53:23;4.00;99.90
3344;DHT22;1685;53.104;8.228;2023-03-08T12:56:01;4.10;99.90
3344;DHT22;1685;53.104;8.228;2023-03-08T12:58:29;4.10;99.90
3344;DHT22;1685;53.104;8.228;2023-03-08T13:00:58;3.80;99.90
3344;DHT22;1685;53.104;8.228;2023-03-08T13:03:27;4.30;99.90
3344;DHT22;1685;53.104;8.228;2023-03-08T13:05:54;4.50;99.90
3344;DHT22;1685;53.104;8.228;2023-03-08T13:08:29;4.40;99.90
3344;DHT22;1685;53.104;8.228;2023-03-08T13:11:05;4.30;99.90
3344;DHT22;1685;53.104;8.228;2023-03-08T13:13:42;4.10;99.90
3344;DHT22;1685;53.104;8.228;2023-03-08T13:16:31;4.10;99.90
3344;DHT22;1685;53.104;8.228;2023-03-08T13:19:17;4.30;99.90
3344;DHT22;1685;53.104;8.228;2023-03-08T13:21:48;4.20;99.90
3344;DHT22;1685;53.104;8.228;2023-03-08T13:24:21;4.30;99.90
3344;DHT22;1685;53.104;8.228;2023-03-08T13:27:08;4.30;99.90
3344;DHT22;1685;53.104;8.228;2023-03-08T13:29:41;4.20;99.90
3344;DHT22;1685;53.104;8.228;2023-03-08T13:32:12;4.10;99.90
3344;DHT22;1685;53.104;8.228;2023-03-08T13:37:19;4.20;99.90
3344;DHT22;1685;53.104;8.228;2023-03-08T13:39:51;4.30;99.90
3344;DHT22;1685;53.104;8.228;2023-03-08T13:42:20;4.10;99.90
3344;DHT22;1685;53.104;8.228;2023-03-08T13:47:21;4.30;99.90
3344;DHT22;1685;53.104;8.228;2023-03-08T13:49:49;4.30;99.90
3344;DHT22;1685;53.104;8.228;2023-03-08T13:52:19;4.30;99.90
3344;DHT22;1685;53.104;8.228;2023-03-08T13:54:48;4.10;99.90
3344;DHT22;1685;53.104;8.228;2023-03-08T13:57:20;4.50;99.90
3344;DHT22;1685;53.104;8.228;2023-03-08T13:59:48;4.30;99.90
3344;DHT22;1685;53.104;8.228;2023-03-08T14:02:19;4.10;99.90
3344;DHT22;1685;53.104;8.228;2023-03-08T14:07:19;4.40;99.90
3344;DHT22;1685;53.104;8.228;2023-03-08T14:09:46;4.40;99.90
3344;DHT22;1685;53.104;8.228;2023-03-08T14:12:16;4.40;99.90
3344;DHT22;1685;53.104;8.228;2023-03-08T14:14:47;4.40;99.90
3344;DHT22;1685;53.104;8.228;2023-03-08T14:17:19;4.40;99.90
3344;DHT22;1685;53.104;8.228;2023-03-08T14:19:51;4.30;99.90
3344;DHT22;1685;53.104;8.228;2023-03-08T14:22:19;4.30;99.90
3344;DHT22;1685;53.104;8.228;2023-03-08T14:24:50;4.30;99.90
3344;DHT22;1685;53.104;8.228;2023-03-08T14:27:32;4.40;99.90
3344;DHT22;1685;53.104;8.228;2023-03-08T14:30:11;4.50;99.90
3344;DHT22;1685;53.104;8.228;2023-03-08T14:35:15;4.10;99.90
3344;DHT22;1685;53.104;8.228;2023-03-08T14:37:43;4.40;99.90
3344;DHT22;1685;53.104;8.228;2023-03-08T14:40:26;4.30;99.90
3344;DHT22;1685;53.104;8.228;2023-03-08T14:42:54;4.30;99.90
3344;DHT22;1685;53.104;8.228;2023-03-08T14:45:24;4.20;99.90
3344;DHT22;1685;53.104;8.228;2023-03-08T14:47:54;4.30;99.90
3344;DHT22;1685;53.104;8.228;2023-03-08T14:50:24;4.30;99.90
3344;DHT22;1685;53.104;8.228;2023-03-08T14:52:54;4.30;99.90
3344;DHT22;1685;53.104;8.228;2023-03-08T14:55:23;4.30;99.90
3344;DHT22;1685;53.104;8.228;2023-03-08T14:57:51;4.40;99.90
3344;DHT22;1685;53.104;8.228;2023-03-08T15:00:20;3.90;99.90
3344;DHT22;1685;53.104;8.228;2023-03-08T15:02:48;4.10;99.90
3344;DHT22;1685;53.104;8.228;2023-03-08T15:05:17;4.20;99.90
3344;DHT22;1685;53.104;8.228;2023-03-08T15:10:23;4.20;99.90
3344;DHT22;1685;53.104;8.228;2023-03-08T15:20:13;4.10;99.90
3344;DHT22;1685;53.104;8.228;2023-03-08T15:22:43;4.10;99.90
3344;DHT22;1685;53.104;8.228;2023-03-08T15:25:13;4.20;99.90
3344;DHT22;1685;53.104;8.228;2023-03-08T15:30:13;3.70;99.90
3344;DHT22;1685;53.104;8.228;2023-03-08T15:32:40;4.00;99.90
3344;DHT22;1685;53.104;8.228;2023-03-08T15:35:08;4.10;99.90
3344;DHT22;1685;53.104;8.228;2023-03-08T15:37:36;3.80;99.90
3344;DHT22;1685;53.104;8.228;2023-03-08T15:40:03;4.00;99.90
3344;DHT22;1685;53.104;8.228;2023-03-08T15:42:32;3.80;99.90
3344;DHT22;1685;53.104;8.228;2023-03-08T15:47:26;3.60;99.90
3344;DHT22;1685;53.104;8.228;2023-03-08T15:52:20;4.00;99.90
3344;DHT22;1685;53.104;8.228;2023-03-08T15:54:49;3.80;99.90
3344;DHT22;1685;53.104;8.228;2023-03-08T15:57:16;3.90;99.90
3344;DHT22;1685;53.104;8.228;2023-03-08T16:02:12;3.90;99.90
3344;DHT22;1685;53.104;8.228;2023-03-08T16:12:08;3.90;99.90
3344;DHT22;1685;53.104;8.228;2023-03-08T16:19:33;3.70;99.90
3344;DHT22;1685;53.104;8.228;2023-03-08T16:29:23;3.60;99.90
3344;DHT22;1685;53.104;8.228;2023-03-08T16:44:16;3.60;99.90
3344;DHT22;1685;53.104;8.228;2023-03-08T16:46:44;3.50;99.90
3344;DHT22;1685;53.104;8.228;2023-03-08T16:56:32;3.60;99.90
3344;DHT22;1685;53.104;8.228;2023-03-08T17:01:27;3.40;99.90
3344;DHT22;1685;53.104;8.228;2023-03-08T17:03:56;3.40;99.90
3344;DHT22;1685;53.104;8.228;2023-03-08T17:06:27;3.40;99.90
3344;DHT22;1685;53.104;8.228;2023-03-08T17:11:22;3.40;99.90
3344;DHT22;1685;53.104;8.228;2023-03-08T17:13:51;3.30;99.90
3344;DHT22;1685;53.104;8.228;2023-03-08T17:16:19;3.20;99.90
3344;DHT22;1685;53.104;8.228;2023-03-08T17:18:46;3.30;99.90
3344;DHT22;1685;53.104;8.228;2023-03-08T17:21:15;3.20;99.90
3344;DHT22;1685;53.104;8.228;2023-03-08T17:26:10;3.20;99.90
3344;DHT22;1685;53.104;8.228;2023-03-08T17:28:38;3.10;99.90
3344;DHT22;1685;53.104;8.228;2023-03-08T17:31:06;3.20;99.90
3344;DHT22;1685;53.104;8.228;2023-03-08T17:33:34;2.70;99.90
3344;DHT22;1685;53.104;8.228;2023-03-08T17:36:00;3.00;99.90
3344;DHT22;1685;53.104;8.228;2023-03-08T17:38:28;3.00;99.90
3344;DHT22;1685;53.104;8.228;2023-03-08T17:40:55;3.00;99.90
3344;DHT22;1685;53.104;8.228;2023-03-08T17:45:56;2.90;99.90
3344;DHT22;1685;53.104;8.228;2023-03-08T17:50:50;2.90;99.90
3344;DHT22;1685;53.104;8.228;2023-03-08T17:55:46;3.30;99.90
3344;DHT22;1685;53.104;8.228;2023-03-08T18:03:07;2.80;99.90
3344;DHT22;1685;53.104;8.228;2023-03-08T18:05:34;2.90;99.90
3344;DHT22;1685;53.104;8.228;2023-03-08T18:08:00;2.90;99.90
3344;DHT22;1685;53.104;8.228;2023-03-08T18:12:55;2.90;99.90
3344;DHT22;1685;53.104;8.228;2023-03-08T18:20:16;2.70;99.90
3344;DHT22;1685;53.104;8.228;2023-03-08T18:22:44;2.70;99.90
3344;DHT22;1685;53.104;8.228;2023-03-08T18:27:39;2.70;99.90
3344;DHT22;1685;53.104;8.228;2023-03-08T18:30:10;2.80;99.90
3344;DHT22;1685;53.104;8.228;2023-03-08T18:35:05;2.90;99.90
3344;DHT22;1685;53.104;8.228;2023-03-08T18:47:21;2.40;99.90
3344;DHT22;1685;53.104;8.228;2023-03-08T19:02:03;2.60;99.90
3344;DHT22;1685;53.104;8.228;2023-03-08T19:04:32;3.10;99.90
3344;DHT22;1685;53.104;8.228;2023-03-08T19:21:47;2.40;99.90
3344;DHT22;1685;53.104;8.228;2023-03-08T19:24:16;2.50;99.90
3344;DHT22;1685;53.104;8.228;2023-03-08T19:26:44;2.50;99.90
3344;DHT22;1685;53.104;8.228;2023-03-08T19:29:15;2.40;99.90
3344;DHT22;1685;53.104;8.228;2023-03-08T19:31:44;2.40;99.90
3344;DHT22;1685;53.104;8.228;2023-03-08T19:34:11;2.30;99.90
3344;DHT22;1685;53.104;8.228;2023-03-08T19:36:39;2.40;99.90
3344;DHT22;1685;53.104;8.228;2023-03-08T19:39:09;2.70;99.90
3344;DHT22;1685;53.104;8.228;2023-03-08T19:46:32;2.80;99.90
3344;DHT22;1685;53.104;8.228;2023-03-08T19:48:58;2.40;99.90
3344;DHT22;1685;53.104;8.228;2023-03-08T19:51:25;2.10;99.90
3344;DHT22;1685;53.104;8.228;2023-03-08T19:53:53;2.30;99.90
3344;DHT22;1685;53.104;8.228;2023-03-08T19:56:21;2.30;99.90
3344;DHT22;1685;53.104;8.228;2023-03-08T20:01:17;2.20;99.90
3344;DHT22;1685;53.104;8.228;2023-03-08T20:06:20;2.20;99.90
3344;DHT22;1685;53.104;8.228;2023-03-08T20:13:42;2.10;99.90
3344;DHT22;1685;53.104;8.228;2023-03-08T20:30:53;1.90;99.90
3344;DHT22;1685;53.104;8.228;2023-03-08T20:33:20;1.90;99.90
3344;DHT22;1685;53.104;8.228;2023-03-08T20:35:55;2.00;99.90
3344;DHT22;1685;53.104;8.228;2023-03-08T20:40:56;1.80;99.90
3344;DHT22;1685;53.104;8.228;2023-03-08T20:48:19;1.80;99.90
3344;DHT22;1685;53.104;8.228;2023-03-08T20:55:40;1.70;99.90
3344;DHT22;1685;53.104;8.228;2023-03-08T20:58:07;1.70;99.90
3344;DHT22;1685;53.104;8.228;2023-03-08T21:05:31;1.50;99.90
3344;DHT22;1685;53.104;8.228;2023-03-08T21:07:59;1.40;99.90